createdAt,value
2018-03-29T10:56:28.067Z,5.95
2018-03-29T11:04:02.254Z,16.83
2018-03-29T11:06:29.843Z,17.00
2018-03-29T11:08:57.430Z,19.47
2018-03-29T11:11:25.061Z,21.50
2018-03-29T11:13:52.697Z,19.60
2018-03-29T11:16:20.282Z,21.80
2018-03-29T11:18:47.876Z,24.23
2018-03-29T11:21:15.489Z,23.83
2018-03-29T11:23:43.133Z,25.60
2018-03-29T11:26:10.797Z,24.43
2018-03-29T11:28:38.439Z,27.30
2018-03-29T11:31:11.093Z,27.07
2018-03-29T11:33:39.059Z,25.60
2018-03-29T11:36:06.688Z,24.63
2018-03-29T11:38:34.286Z,27.00
2018-03-29T11:41:01.909Z,23.73
2018-03-29T11:43:29.541Z,23.87
2018-03-29T11:45:57.179Z,23.03
2018-03-29T11:48:24.791Z,24.37
2018-03-29T11:50:52.430Z,23.43
2018-03-29T11:53:20.038Z,24.37
2018-03-29T11:55:47.621Z,24.97
2018-03-29T11:58:15.249Z,22.53
2018-03-29T12:00:42.826Z,26.73
2018-03-29T12:03:10.426Z,22.73
2018-03-29T12:05:38.070Z,22.87
2018-03-29T12:08:10.995Z,22.87
2018-03-29T12:10:38.928Z,19.60
2018-03-29T12:13:06.520Z,19.50
2018-03-29T12:15:34.222Z,17.70
2018-03-29T12:18:01.866Z,20.97
2018-03-29T12:20:30.664Z,21.40
2018-03-29T12:22:58.247Z,21.97
2018-03-29T12:25:25.870Z,25.97
2018-03-29T12:27:53.499Z,21.73
2018-03-29T12:30:21.133Z,23.33
2018-03-29T12:32:48.717Z,19.67
2018-03-29T12:35:16.566Z,21.03
2018-03-29T12:37:44.160Z,20.57
2018-03-29T12:40:11.798Z,21.07
2018-03-29T12:42:39.405Z,22.30
2018-03-29T12:45:13.072Z,22.00
2018-03-29T12:47:41.050Z,23.00
2018-03-29T12:50:14.994Z,21.27
2018-03-29T12:52:42.896Z,15.30
2018-03-29T12:55:27.756Z,21.73
2018-03-29T12:58:08.592Z,19.50
2018-03-29T13:00:36.192Z,14.97
2018-03-29T13:03:04.716Z,15.30
2018-03-29T13:05:32.297Z,17.43
2018-03-29T13:07:59.985Z,15.23
2018-03-29T13:10:27.564Z,19.47
2018-03-29T13:12:55.187Z,15.70
2018-03-29T13:15:22.775Z,17.03
2018-03-29T13:17:50.380Z,16.67
2018-03-29T13:20:18.013Z,18.30
2018-03-29T13:22:45.636Z,20.07
2018-03-29T13:25:13.505Z,20.63
2018-03-29T13:27:41.128Z,18.90
2018-03-29T13:30:08.771Z,18.70
2018-03-29T13:32:36.354Z,18.87
2018-03-29T13:35:04.662Z,19.87
2018-03-29T13:37:32.250Z,20.67
2018-03-29T13:39:59.840Z,17.87
2018-03-29T13:42:27.454Z,17.43
2018-03-29T13:44:55.058Z,22.03
2018-03-29T13:47:22.680Z,18.97
2018-03-29T13:49:50.312Z,18.13
2018-03-29T13:52:19.101Z,21.97
2018-03-29T13:54:48.419Z,20.30
2018-03-29T13:57:16.034Z,21.67
2018-03-29T13:59:43.682Z,21.30
2018-03-29T14:02:12.067Z,19.00
2018-03-29T14:04:39.668Z,18.33
2018-03-29T14:07:07.292Z,10.87
2018-03-29T14:09:34.963Z,8.80
2018-03-29T14:12:02.622Z,7.93
2018-03-29T14:14:30.263Z,7.27
2018-03-29T14:16:58.615Z,7.87
2018-03-29T14:19:26.188Z,7.77
2018-03-29T14:21:58.690Z,7.63
2018-03-29T14:24:26.522Z,9.90
2018-03-29T14:26:54.106Z,11.73
2018-03-29T14:29:21.720Z,10.30
2018-03-29T14:31:49.302Z,14.37
2018-03-29T14:34:16.982Z,12.60
2018-03-29T14:36:44.622Z,14.87
2018-03-29T14:39:12.210Z,14.53
2018-03-29T14:41:39.806Z,17.37
2018-03-29T14:44:07.441Z,17.07
2018-03-29T14:46:35.067Z,14.00
2018-03-29T14:49:02.665Z,13.67
2018-03-29T14:51:30.302Z,10.97
2018-03-29T14:53:57.933Z,8.80
2018-03-29T14:56:25.584Z,9.10
2018-03-29T14:58:53.148Z,9.40
2018-03-29T15:01:20.720Z,10.90
2018-03-29T15:03:48.369Z,11.10
2018-03-29T15:06:16.042Z,13.30
2018-03-29T15:08:43.659Z,11.60
2018-03-29T15:11:11.239Z,11.50
2018-03-29T15:13:39.755Z,10.27
2018-03-29T15:16:07.460Z,11.27
2018-03-29T15:18:35.113Z,10.07
2018-03-29T15:21:02.747Z,12.63
2018-03-29T15:23:30.364Z,11.40
2018-03-29T15:25:58.719Z,11.20
2018-03-29T15:28:26.317Z,12.07
2018-03-29T15:30:53.907Z,12.73
2018-03-29T15:33:21.493Z,15.90
2018-03-29T15:35:49.129Z,14.67
2018-03-29T15:38:16.719Z,11.60
2018-03-29T15:40:44.343Z,11.60
2018-03-29T15:43:11.922Z,12.57
2018-03-29T15:45:39.553Z,10.20
2018-03-29T15:48:08.043Z,11.53
2018-03-29T15:50:35.656Z,10.53
2018-03-29T15:53:03.269Z,11.97
2018-03-29T15:55:30.864Z,13.07
2018-03-29T15:57:58.500Z,12.70
2018-03-29T16:00:26.091Z,11.37
2018-03-29T16:02:53.760Z,11.27
2018-03-29T16:05:21.374Z,12.40
2018-03-29T16:07:49.001Z,11.53
2018-03-29T16:10:16.649Z,15.00
2018-03-29T16:12:44.271Z,13.30
2018-03-29T16:15:11.889Z,14.73
2018-03-29T16:17:39.634Z,12.60
2018-03-29T16:20:07.235Z,14.37
2018-03-29T16:22:34.936Z,15.23
2018-03-29T16:25:02.622Z,13.33
2018-03-29T16:27:30.257Z,12.33
2018-03-29T16:29:57.953Z,14.63
2018-03-29T16:32:25.564Z,15.37
2018-03-29T16:34:53.207Z,14.23
2018-03-29T16:37:20.852Z,14.53
2018-03-29T16:39:48.475Z,14.37
2018-03-29T16:42:16.081Z,15.13
2018-03-29T16:44:43.661Z,13.93
2018-03-29T16:47:11.351Z,14.90
2018-03-29T16:49:38.962Z,15.40
2018-03-29T16:52:06.560Z,14.30
2018-03-29T16:54:34.167Z,16.07
2018-03-29T16:57:01.792Z,14.27
2018-03-29T16:59:29.435Z,12.47
2018-03-29T17:01:57.130Z,14.80
2018-03-29T17:04:24.841Z,15.53
2018-03-29T17:06:52.458Z,13.03
2018-03-29T17:09:20.252Z,13.20
2018-03-29T17:11:47.851Z,14.40
2018-03-29T17:14:15.447Z,13.20
2018-03-29T17:16:43.138Z,13.03
2018-03-29T17:19:10.751Z,18.33
2018-03-29T17:21:38.433Z,20.00
2018-03-29T17:24:06.050Z,16.50
2018-03-29T17:26:33.702Z,26.63
2018-03-29T17:29:01.392Z,19.23
2018-03-29T17:31:28.957Z,18.07
2018-03-29T17:33:57.366Z,20.47
2018-03-29T17:36:25.200Z,13.67
2018-03-29T17:38:52.863Z,14.53
2018-03-29T17:41:25.497Z,14.40
2018-03-29T17:43:53.405Z,15.93
2018-03-29T17:46:21.071Z,17.47
2018-03-29T17:48:49.485Z,16.13
2018-03-29T17:51:17.097Z,19.30
2018-03-29T17:53:44.718Z,20.33
2018-03-29T17:56:12.499Z,19.73
2018-03-29T17:58:40.118Z,17.23
2018-03-29T18:01:08.034Z,15.43
2018-03-29T18:03:36.139Z,16.73
2018-03-29T18:06:03.959Z,17.97
2018-03-29T18:08:31.630Z,15.37
2018-03-29T18:10:59.484Z,19.57
2018-03-29T18:13:27.318Z,18.43
2018-03-29T18:15:55.228Z,20.00
2018-03-29T18:18:22.846Z,21.63
2018-03-29T18:20:50.617Z,22.33
2018-03-29T18:23:18.362Z,20.10
2018-03-29T18:25:46.792Z,22.60
2018-03-29T18:28:14.725Z,20.13
2018-03-29T18:30:43.106Z,19.93
2018-03-29T18:33:10.762Z,21.33
2018-03-29T18:35:39.185Z,19.33
2018-03-29T18:38:07.284Z,21.17
2018-03-29T18:40:34.908Z,22.00
2018-03-29T18:43:02.560Z,22.17
2018-03-29T18:45:30.567Z,23.60
2018-03-29T18:47:58.224Z,22.10
2018-03-29T18:50:25.812Z,23.13
2018-03-29T18:52:53.396Z,25.90
2018-03-29T18:55:21.797Z,22.17
2018-03-29T18:57:49.392Z,26.53
2018-03-29T19:00:17.041Z,25.63
2018-03-29T19:02:44.640Z,25.23
2018-03-29T19:05:12.379Z,25.30
2018-03-29T19:07:39.994Z,25.47
2018-03-29T19:10:08.366Z,24.27
2018-03-29T19:12:36.718Z,25.10
2018-03-29T19:15:04.344Z,23.93
2018-03-29T19:17:31.986Z,23.63
2018-03-29T19:19:59.585Z,26.97
2018-03-29T19:22:27.225Z,21.93
2018-03-29T19:24:54.939Z,27.83
2018-03-29T19:27:22.585Z,24.37
2018-03-29T19:29:50.208Z,26.80
2018-03-29T19:32:17.798Z,20.27
2018-03-29T19:34:45.397Z,21.60
2018-03-29T19:37:13.041Z,21.57
2018-03-29T19:39:40.612Z,22.60
2018-03-29T19:42:08.212Z,20.90
2018-03-29T19:44:35.864Z,21.93
2018-03-29T19:47:03.496Z,22.47
2018-03-29T19:49:31.097Z,22.97
2018-03-29T19:51:58.746Z,25.47
2018-03-29T19:54:26.349Z,20.97
2018-03-29T19:56:54.218Z,20.87
2018-03-29T19:59:21.848Z,21.40
2018-03-29T20:01:49.471Z,20.43
2018-03-29T20:04:17.111Z,22.03
2018-03-29T20:06:44.698Z,22.90
2018-03-29T20:09:12.366Z,24.80
2018-03-29T20:11:40.009Z,23.90
2018-03-29T20:14:07.945Z,24.80
2018-03-29T20:16:35.543Z,26.20
2018-03-29T20:19:03.224Z,27.23
2018-03-29T20:21:30.810Z,26.83
2018-03-29T20:23:59.169Z,26.23
2018-03-29T20:26:26.795Z,26.63
2018-03-29T20:28:54.490Z,25.70
2018-03-29T20:31:22.078Z,26.20
2018-03-29T20:33:49.668Z,28.93
2018-03-29T20:36:17.288Z,30.13
2018-03-29T20:38:44.920Z,30.27
2018-03-29T20:41:12.514Z,32.40
2018-03-29T20:43:40.102Z,28.60
2018-03-29T20:46:07.896Z,27.23
2018-03-29T20:48:35.494Z,28.30
2018-03-29T20:51:03.094Z,30.10
2018-03-29T20:53:30.710Z,32.73
2018-03-29T20:55:58.435Z,30.27
2018-03-29T20:58:25.993Z,33.97
2018-03-29T21:00:53.585Z,29.87
2018-03-29T21:03:21.224Z,32.17
2018-03-29T21:05:48.860Z,32.40
2018-03-29T21:08:16.453Z,36.60
2018-03-29T21:10:44.102Z,37.00
2018-03-29T21:13:11.719Z,38.63
2018-03-29T21:15:40.103Z,36.70
2018-03-29T21:18:08.453Z,39.77
2018-03-29T21:20:37.316Z,36.70
2018-03-29T21:23:04.955Z,34.10
2018-03-29T21:25:32.778Z,36.00
2018-03-29T21:28:00.427Z,35.57
2018-03-29T21:30:28.050Z,34.07
2018-03-29T21:32:55.633Z,33.70
2018-03-29T21:35:23.269Z,30.63
2018-03-29T21:37:50.905Z,30.80
2018-03-29T21:40:18.527Z,31.03
2018-03-29T21:42:46.151Z,31.00
2018-03-29T21:45:13.742Z,31.07
2018-03-29T21:47:41.456Z,29.87
2018-03-29T21:50:09.081Z,32.07
2018-03-29T21:52:36.697Z,33.10
2018-03-29T21:55:05.082Z,26.40
2018-03-29T21:57:33.474Z,29.00
2018-03-29T22:00:01.085Z,30.13
2018-03-29T22:02:28.706Z,28.77
2018-03-29T22:04:56.327Z,30.83
2018-03-29T22:07:23.928Z,32.40
2018-03-29T22:09:51.592Z,28.97
2018-03-29T22:12:19.201Z,29.13
2018-03-29T22:14:46.809Z,33.77
2018-03-29T22:17:14.633Z,37.97
2018-03-29T22:19:42.224Z,39.40
2018-03-29T22:22:09.829Z,36.30
2018-03-29T22:24:37.413Z,35.23
2018-03-29T22:27:05.035Z,37.33
2018-03-29T22:29:32.636Z,33.50
2018-03-29T22:32:00.286Z,30.70
2018-03-29T22:34:27.869Z,37.20
2018-03-29T22:36:55.479Z,33.63
2018-03-29T22:39:23.093Z,32.73
2018-03-29T22:41:50.677Z,35.77
2018-03-29T22:44:18.264Z,32.93
2018-03-29T22:46:45.992Z,32.43
2018-03-29T22:49:14.402Z,35.93
2018-03-29T22:51:42.017Z,38.00
2018-03-29T22:54:09.649Z,32.73
2018-03-29T22:56:37.297Z,34.80
2018-03-29T22:59:04.975Z,32.57
2018-03-29T23:01:32.578Z,33.63
2018-03-29T23:04:00.208Z,34.97
2018-03-29T23:06:27.865Z,35.30
2018-03-29T23:08:55.464Z,38.37
2018-03-29T23:11:23.056Z,32.83
2018-03-29T23:13:50.651Z,34.77
2018-03-29T23:16:18.234Z,32.13
2018-03-29T23:18:45.865Z,31.57
2018-03-29T23:21:13.522Z,32.23
2018-03-29T23:23:41.190Z,33.53
2018-03-29T23:26:08.817Z,37.97
2018-03-29T23:28:36.416Z,33.17
2018-03-29T23:31:03.999Z,36.80
2018-03-29T23:33:31.582Z,36.93
2018-03-29T23:35:59.209Z,35.30
2018-03-29T23:38:26.822Z,38.77
2018-03-29T23:40:54.409Z,38.47
2018-03-29T23:43:22.026Z,41.83
2018-03-29T23:45:49.629Z,38.57
2018-03-29T23:48:17.246Z,38.33
2018-03-29T23:50:44.892Z,37.10
2018-03-29T23:53:12.519Z,38.17
2018-03-29T23:55:40.154Z,34.90
2018-03-29T23:58:17.461Z,32.03
